createdAt,value
2023-01-17T00:00:01.100Z,982.35
2023-01-17T00:01:01.131Z,982.36
2023-01-17T00:02:01.134Z,982.37
2023-01-17T00:03:01.090Z,982.35
2023-01-17T00:04:01.199Z,982.32
2023-01-17T00:05:01.139Z,982.33
2023-01-17T00:06:01.158Z,982.26
2023-01-17T00:07:01.183Z,982.27
2023-01-17T00:08:01.157Z,982.25
2023-01-17T00:09:01.277Z,982.22
2023-01-17T00:10:01.558Z,982.27
2023-01-17T00:11:01.088Z,982.28
2023-01-17T00:12:01.067Z,982.2
2023-01-17T00:13:01.077Z,982.23
2023-01-17T00:14:01.076Z,982.26
2023-01-17T00:15:01.094Z,982.29
2023-01-17T00:16:01.560Z,982.28
2023-01-17T00:17:02.133Z,982.28
2023-01-17T00:18:02.119Z,982.26
2023-01-17T00:19:01.222Z,982.23
2023-01-17T00:20:01.123Z,982.27
2023-01-17T00:21:01.123Z,982.27
2023-01-17T00:22:01.138Z,982.15
2023-01-17T00:23:01.538Z,982.11
2023-01-17T00:24:01.537Z,982.14
2023-01-17T00:25:02.577Z,982.15
2023-01-17T00:26:01.964Z,982.21
2023-01-17T00:27:01.074Z,982.18
2023-01-17T00:28:01.086Z,982.17
2023-01-17T00:29:01.086Z,982.15
2023-01-17T00:30:01.089Z,982.15
2023-01-17T00:31:02.154Z,982.12
2023-01-17T00:32:01.098Z,982.09
2023-01-17T00:33:01.097Z,982.07
2023-01-17T00:34:01.100Z,982.11
2023-01-17T00:35:01.114Z,982.09
2023-01-17T00:36:01.113Z,982.07
2023-01-17T00:37:01.278Z,982.04
2023-01-17T00:38:01.651Z,982.12
2023-01-17T00:39:01.139Z,982.1
2023-01-17T00:40:01.173Z,982.1
2023-01-17T00:41:01.067Z,982.07
2023-01-17T00:42:01.170Z,982.07
2023-01-17T00:43:01.159Z,982.05
2023-01-17T00:44:01.197Z,982.03
2023-01-17T00:45:01.300Z,982.09
2023-01-17T00:46:01.082Z,982.01
2023-01-17T00:47:01.451Z,982.05
2023-01-17T00:48:01.085Z,982.03
2023-01-17T00:49:01.051Z,981.98
2023-01-17T00:50:01.099Z,982.01
2023-01-17T00:51:01.139Z,981.99
2023-01-17T00:52:01.117Z,981.99
2023-01-17T00:53:01.054Z,982.02
2023-01-17T00:54:02.105Z,981.99
2023-01-17T00:55:01.374Z,981.98
2023-01-17T00:56:01.140Z,982.03
2023-01-17T00:57:01.250Z,981.97
2023-01-17T00:58:01.142Z,981.98
2023-01-17T00:59:01.157Z,981.93
2023-01-17T01:00:01.116Z,981.88
2023-01-17T01:01:01.453Z,981.93
2023-01-17T01:02:01.675Z,981.92
2023-01-17T01:03:01.097Z,981.94
2023-01-17T01:04:01.053Z,981.91
2023-01-17T01:05:01.056Z,981.89
2023-01-17T01:06:04.213Z,981.92
2023-01-17T01:07:01.946Z,981.96
2023-01-17T01:08:02.017Z,981.94
2023-01-17T01:09:00.614Z,981.9
2023-01-17T01:10:00.307Z,981.85
2023-01-17T01:11:05.582Z,981.97
2023-01-17T01:12:00.763Z,981.89
2023-01-17T01:13:01.444Z,981.86
2023-01-17T01:14:01.060Z,981.84
2023-01-17T01:15:01.180Z,981.84
2023-01-17T01:16:08.106Z,981.81
2023-01-17T01:17:01.770Z,981.86
2023-01-17T01:18:01.096Z,981.82
2023-01-17T01:19:01.103Z,981.82
2023-01-17T01:20:01.078Z,981.81
2023-01-17T01:21:10.745Z,981.75
2023-01-17T01:22:01.535Z,981.76
2023-01-17T01:23:01.239Z,981.76
2023-01-17T01:24:01.113Z,981.85
2023-01-17T01:25:01.117Z,981.87
2023-01-17T01:26:14.249Z,981.84
2023-01-17T01:27:01.572Z,981.77
2023-01-17T01:28:00.922Z,981.8
2023-01-17T01:29:01.050Z,981.86
2023-01-17T01:30:01.145Z,981.78
2023-01-17T01:31:16.541Z,981.73
2023-01-17T01:32:01.397Z,981.67
2023-01-17T01:33:06.831Z,981.72
2023-01-17T01:34:01.767Z,981.68
2023-01-17T01:35:01.747Z,981.62
2023-01-17T01:36:01.489Z,981.69
2023-01-17T01:37:01.102Z,981.62
2023-01-17T01:38:01.191Z,981.69
2023-01-17T01:39:01.548Z,981.69
2023-01-17T01:40:01.225Z,981.68
2023-01-17T01:41:01.115Z,981.66
2023-01-17T01:42:01.079Z,981.68
2023-01-17T01:43:02.015Z,981.61
2023-01-17T01:44:01.133Z,981.58
2023-01-17T01:45:01.139Z,981.57
2023-01-17T01:46:01.238Z,981.58
2023-01-17T01:47:01.612Z,981.57
2023-01-17T01:48:02.209Z,981.59
2023-01-17T01:49:01.210Z,981.57
2023-01-17T01:50:02.120Z,981.57
2023-01-17T01:51:01.089Z,981.58
2023-01-17T01:52:01.081Z,981.56
2023-01-17T01:53:01.088Z,981.64
2023-01-17T01:54:01.109Z,981.63
2023-01-17T01:55:01.104Z,981.62
2023-01-17T01:56:01.127Z,981.64
2023-01-17T01:57:01.234Z,981.62
2023-01-17T01:58:01.126Z,981.56
2023-01-17T01:59:01.142Z,981.59
2023-01-17T02:00:01.168Z,981.5
2023-01-17T02:01:01.245Z,981.58
2023-01-17T02:02:01.168Z,981.55
2023-01-17T02:03:01.170Z,981.52
2023-01-17T02:04:01.276Z,981.58
2023-01-17T02:05:04.429Z,981.57
2023-01-17T02:06:01.478Z,981.63
2023-01-17T02:07:02.610Z,981.59
2023-01-17T02:08:01.147Z,981.58
2023-01-17T02:09:01.118Z,981.56
2023-01-17T02:10:01.112Z,981.56
2023-01-17T02:11:01.123Z,981.58
2023-01-17T02:12:01.452Z,981.58
2023-01-17T02:13:01.197Z,981.55
2023-01-17T02:14:01.216Z,981.55
2023-01-17T02:15:01.556Z,981.58
2023-01-17T02:16:01.156Z,981.53
2023-01-17T02:17:01.156Z,981.6
2023-01-17T02:18:01.193Z,981.55
2023-01-17T02:19:00.951Z,981.55
2023-01-17T02:20:01.171Z,981.57
2023-01-17T02:21:01.172Z,981.5
2023-01-17T02:22:01.458Z,981.55
2023-01-17T02:23:01.000Z,981.53
2023-01-17T02:24:01.128Z,981.58
2023-01-17T02:25:01.155Z,981.55
2023-01-17T02:26:01.799Z,981.57
2023-01-17T02:27:01.139Z,981.56
2023-01-17T02:28:01.121Z,981.56
2023-01-17T02:29:01.550Z,981.43
2023-01-17T02:30:01.123Z,981.53
2023-01-17T02:31:01.145Z,981.51
2023-01-17T02:32:01.151Z,981.51
2023-01-17T02:33:01.160Z,981.49
2023-01-17T02:34:01.154Z,981.53
2023-01-17T02:35:01.802Z,981.48
2023-01-17T02:36:02.667Z,981.48
2023-01-17T02:37:01.164Z,981.46
2023-01-17T02:38:01.472Z,981.45
2023-01-17T02:39:01.082Z,981.47
2023-01-17T02:40:01.116Z,981.42
2023-01-17T02:41:01.082Z,981.44
2023-01-17T02:42:00.679Z,981.42
2023-01-17T02:43:00.515Z,981.47
2023-01-17T02:44:00.182Z,981.48
2023-01-17T02:45:00.031Z,981.5
2023-01-17T02:45:59.835Z,981.44
2023-01-17T02:47:02.000Z,981.47
2023-01-17T02:48:02.586Z,981.43
2023-01-17T02:49:01.141Z,981.46
2023-01-17T02:50:01.147Z,981.48
2023-01-17T02:51:00.837Z,981.46
2023-01-17T02:52:05.013Z,981.5
2023-01-17T02:53:02.082Z,981.46
2023-01-17T02:54:01.144Z,981.47
2023-01-17T02:55:01.100Z,981.5
2023-01-17T02:56:01.098Z,981.49
2023-01-17T02:57:08.770Z,981.5
2023-01-17T02:58:01.184Z,981.55
2023-01-17T02:59:01.815Z,981.57
2023-01-17T03:00:01.066Z,981.56
2023-01-17T03:01:01.606Z,981.54
2023-01-17T03:02:12.087Z,981.51
2023-01-17T03:03:02.219Z,981.53
2023-01-17T03:04:01.951Z,981.6
2023-01-17T03:05:01.937Z,981.5
2023-01-17T03:06:02.567Z,981.54
2023-01-17T03:07:14.636Z,981.54
2023-01-17T03:08:01.186Z,981.56
2023-01-17T03:09:01.149Z,981.52
2023-01-17T03:10:01.465Z,981.55
2023-01-17T03:11:01.306Z,981.55
2023-01-17T03:12:01.091Z,981.53
2023-01-17T03:13:01.090Z,981.55
2023-01-17T03:14:01.122Z,981.56
2023-01-17T03:15:01.126Z,981.51
2023-01-17T03:16:01.109Z,981.52
2023-01-17T03:17:01.118Z,981.56
2023-01-17T03:18:01.206Z,981.61
2023-01-17T03:19:01.920Z,981.62
2023-01-17T03:20:01.261Z,981.61
2023-01-17T03:21:01.139Z,981.62
2023-01-17T03:22:01.156Z,981.63
2023-01-17T03:23:01.202Z,981.64
2023-01-17T03:24:01.122Z,981.65
2023-01-17T03:25:01.495Z,981.63
2023-01-17T03:26:01.088Z,981.62
2023-01-17T03:27:01.063Z,981.61
2023-01-17T03:28:01.187Z,981.62
2023-01-17T03:29:08.624Z,981.66
2023-01-17T03:30:01.994Z,981.61
2023-01-17T03:31:01.817Z,981.65
2023-01-17T03:32:01.108Z,981.62
2023-01-17T03:33:01.136Z,981.66
2023-01-17T03:34:01.134Z,981.65
2023-01-17T03:35:01.130Z,981.67
2023-01-17T03:36:01.132Z,981.65
2023-01-17T03:37:01.569Z,981.67
2023-01-17T03:38:01.235Z,981.61
2023-01-17T03:39:01.963Z,981.72
2023-01-17T03:40:01.152Z,981.71
2023-01-17T03:41:01.169Z,981.7
2023-01-17T03:42:01.866Z,981.73
2023-01-17T03:43:01.022Z,981.71
2023-01-17T03:44:00.808Z,981.73
2023-01-17T03:45:00.550Z,981.74
2023-01-17T03:46:00.298Z,981.72
2023-01-17T03:46:59.954Z,981.76
2023-01-17T03:47:59.659Z,981.72
2023-01-17T03:49:01.475Z,981.73
2023-01-17T03:50:02.141Z,981.81
2023-01-17T03:51:01.235Z,981.74
2023-01-17T03:52:01.923Z,981.77
2023-01-17T03:53:01.141Z,981.81
2023-01-17T03:54:01.140Z,981.76
2023-01-17T03:55:01.136Z,981.78
2023-01-17T03:56:01.152Z,981.76
2023-01-17T03:57:01.162Z,981.75
2023-01-17T03:58:01.704Z,981.79
2023-01-17T03:59:04.014Z,981.76
2023-01-17T04:00:02.582Z,981.8
2023-01-17T04:01:01.210Z,981.79
2023-01-17T04:02:01.279Z,981.82
2023-01-17T04:03:01.115Z,981.82
2023-01-17T04:04:01.356Z,981.76
2023-01-17T04:05:01.111Z,981.8
2023-01-17T04:06:01.119Z,981.82
2023-01-17T04:07:01.134Z,981.78
2023-01-17T04:08:01.549Z,981.8
2023-01-17T04:09:01.129Z,981.8
2023-01-17T04:10:01.306Z,981.84
2023-01-17T04:11:01.134Z,981.89
2023-01-17T04:12:01.158Z,981.85
2023-01-17T04:13:01.229Z,981.85
2023-01-17T04:14:01.169Z,981.86
2023-01-17T04:15:01.310Z,981.84
2023-01-17T04:16:01.434Z,981.83
2023-01-17T04:17:01.519Z,981.86
2023-01-17T04:18:01.105Z,981.84
2023-01-17T04:19:01.099Z,981.88
2023-01-17T04:20:01.762Z,981.89
2023-01-17T04:21:01.768Z,981.92
2023-01-17T04:22:01.105Z,981.99
2023-01-17T04:23:01.169Z,981.98
2023-01-17T04:24:01.402Z,981.93
2023-01-17T04:25:01.141Z,981.93
2023-01-17T04:26:01.128Z,982
2023-01-17T04:27:01.134Z,982.01
2023-01-17T04:28:04.082Z,981.98
2023-01-17T04:29:01.180Z,982.04
2023-01-17T04:30:01.167Z,982
2023-01-17T04:31:01.161Z,982.03
2023-01-17T04:32:01.936Z,981.98
2023-01-17T04:33:06.433Z,982.06
2023-01-17T04:34:02.149Z,981.96
2023-01-17T04:35:02.252Z,981.96
2023-01-17T04:36:01.088Z,981.98
2023-01-17T04:37:01.110Z,982.01
2023-01-17T04:38:08.483Z,982.05
2023-01-17T04:39:01.119Z,981.98
2023-01-17T04:40:01.128Z,982.08
2023-01-17T04:41:01.124Z,982.07
2023-01-17T04:42:01.136Z,982.12
2023-01-17T04:43:11.351Z,982.16
2023-01-17T04:44:01.520Z,982.13
2023-01-17T04:45:01.027Z,982.14
2023-01-17T04:46:01.197Z,982.15
2023-01-17T04:47:01.063Z,982.16
2023-01-17T04:48:14.307Z,982.2
2023-01-17T04:49:00.894Z,982.26
2023-01-17T04:50:01.158Z,982.26
2023-01-17T04:51:01.407Z,982.3
2023-01-17T04:52:01.474Z,982.27
2023-01-17T04:53:01.175Z,982.31
2023-01-17T04:54:01.066Z,982.36
2023-01-17T04:55:01.131Z,982.39
2023-01-17T04:56:01.138Z,982.37
2023-01-17T04:57:01.085Z,982.42
2023-01-17T04:58:00.836Z,982.45
2023-01-17T04:59:00.530Z,982.5
2023-01-17T05:00:00.208Z,982.54
2023-01-17T05:00:59.937Z,982.47
2023-01-17T05:01:59.658Z,982.47
2023-01-17T05:03:01.272Z,982.53
2023-01-17T05:04:02.618Z,982.53
2023-01-17T05:05:02.022Z,982.6
2023-01-17T05:06:01.092Z,982.63
2023-01-17T05:07:01.112Z,982.63
2023-01-17T05:08:01.094Z,982.61
2023-01-17T05:09:01.092Z,982.63
2023-01-17T05:10:01.144Z,982.65
2023-01-17T05:11:01.168Z,982.63
2023-01-17T05:12:01.116Z,982.68
2023-01-17T05:13:01.117Z,982.64
2023-01-17T05:14:01.150Z,982.73
2023-01-17T05:15:01.126Z,982.71
2023-01-17T05:16:01.193Z,982.79
2023-01-17T05:17:01.288Z,982.82
2023-01-17T05:18:01.162Z,982.82
2023-01-17T05:19:01.490Z,982.81
2023-01-17T05:20:01.806Z,982.84
2023-01-17T05:21:01.121Z,982.86
2023-01-17T05:22:01.089Z,982.86
2023-01-17T05:23:01.080Z,982.84
2023-01-17T05:24:01.101Z,982.82
2023-01-17T05:25:01.095Z,982.86
2023-01-17T05:26:01.119Z,982.88
2023-01-17T05:27:01.109Z,982.91
2023-01-17T05:28:01.143Z,982.94
2023-01-17T05:29:01.228Z,982.88
2023-01-17T05:30:02.853Z,982.91
2023-01-17T05:31:01.677Z,982.84
2023-01-17T05:32:01.076Z,982.96
2023-01-17T05:33:01.046Z,982.9
2023-01-17T05:34:01.174Z,982.88
2023-01-17T05:35:01.197Z,982.93
2023-01-17T05:36:01.797Z,982.93
2023-01-17T05:37:01.521Z,982.92
2023-01-17T05:38:01.581Z,982.93
2023-01-17T05:39:01.758Z,982.9
2023-01-17T05:40:01.759Z,982.92
2023-01-17T05:41:01.529Z,982.98
2023-01-17T05:42:01.144Z,982.98
2023-01-17T05:43:01.301Z,983.01
2023-01-17T05:44:01.142Z,982.99
2023-01-17T05:45:01.373Z,983.01
2023-01-17T05:46:01.325Z,983
2023-01-17T05:47:01.248Z,983.04
2023-01-17T05:48:01.819Z,983.14
2023-01-17T05:49:02.385Z,983.11
2023-01-17T05:50:01.141Z,983.14
2023-01-17T05:51:01.292Z,983.16
2023-01-17T05:52:01.996Z,983.18
2023-01-17T05:53:01.199Z,983.19
2023-01-17T05:54:01.085Z,983.17
2023-01-17T05:55:00.759Z,983.16
2023-01-17T05:56:00.600Z,983.17
2023-01-17T05:57:00.268Z,983.2
2023-01-17T05:57:59.960Z,983.21
2023-01-17T05:58:59.676Z,983.26
2023-01-17T06:00:01.781Z,983.32
2023-01-17T06:01:02.016Z,983.3
2023-01-17T06:02:01.134Z,983.34
2023-01-17T06:03:01.154Z,983.31
2023-01-17T06:04:01.401Z,983.34
2023-01-17T06:05:03.460Z,983.36
2023-01-17T06:06:01.558Z,983.33
2023-01-17T06:07:01.286Z,983.31
2023-01-17T06:08:01.160Z,983.35
2023-01-17T06:09:01.069Z,983.34
2023-01-17T06:10:01.199Z,983.39
2023-01-17T06:11:01.053Z,983.38
2023-01-17T06:12:01.087Z,983.43
2023-01-17T06:13:01.098Z,983.37
2023-01-17T06:14:01.561Z,983.41
2023-01-17T06:15:01.215Z,983.44
2023-01-17T06:16:04.563Z,983.5
2023-01-17T06:17:01.908Z,983.43
2023-01-17T06:18:01.117Z,983.4
2023-01-17T06:19:03.518Z,983.49
2023-01-17T06:20:00.827Z,983.49
2023-01-17T06:21:00.883Z,983.54
2023-01-17T06:22:01.172Z,983.5
2023-01-17T06:23:01.180Z,983.47
2023-01-17T06:24:07.044Z,983.5
2023-01-17T06:25:02.202Z,983.51
2023-01-17T06:26:03.112Z,983.59
2023-01-17T06:27:01.077Z,983.53
2023-01-17T06:28:01.087Z,983.6
2023-01-17T06:29:09.275Z,983.59
2023-01-17T06:30:01.111Z,983.65
2023-01-17T06:31:01.096Z,983.65
2023-01-17T06:32:01.674Z,983.66
2023-01-17T06:33:01.351Z,983.61
2023-01-17T06:34:10.868Z,983.64
2023-01-17T06:35:02.558Z,983.64
2023-01-17T06:36:01.639Z,983.71
2023-01-17T06:37:01.102Z,983.66
2023-01-17T06:38:01.093Z,983.65
2023-01-17T06:39:15.194Z,983.68
2023-01-17T06:40:01.064Z,983.68
2023-01-17T06:41:01.364Z,983.69
2023-01-17T06:42:01.790Z,983.69
2023-01-17T06:43:01.102Z,983.75
2023-01-17T06:44:01.139Z,983.78
2023-01-17T06:45:01.127Z,983.76
2023-01-17T06:46:01.097Z,983.84
2023-01-17T06:47:01.110Z,983.81
2023-01-17T06:48:01.125Z,983.82
2023-01-17T06:49:01.223Z,983.86
2023-01-17T06:50:01.062Z,983.87
2023-01-17T06:51:01.074Z,983.89
2023-01-17T06:52:01.094Z,983.86
2023-01-17T06:53:01.151Z,983.98
2023-01-17T06:54:01.153Z,984.02
2023-01-17T06:55:01.151Z,984.03
2023-01-17T06:56:01.501Z,984.03
2023-01-17T06:57:02.117Z,984.06
2023-01-17T06:58:01.065Z,984.07
2023-01-17T06:59:01.077Z,984.08
2023-01-17T07:00:01.076Z,984.05
2023-01-17T07:01:02.122Z,984.11
2023-01-17T07:01:59.962Z,984.12
2023-01-17T07:02:59.613Z,984.1
2023-01-17T07:04:01.938Z,984.11
2023-01-17T07:05:01.808Z,984.13
2023-01-17T07:06:01.118Z,984.12
2023-01-17T07:07:01.127Z,984.18
2023-01-17T07:08:01.148Z,984.17
2023-01-17T07:09:01.150Z,984.16
2023-01-17T07:10:01.477Z,984.15
2023-01-17T07:11:01.530Z,984.18
2023-01-17T07:12:01.177Z,984.14
2023-01-17T07:13:01.185Z,984.16
2023-01-17T07:14:00.862Z,984.11
2023-01-17T07:15:00.687Z,984.19
2023-01-17T07:16:01.255Z,984.11
2023-01-17T07:17:01.215Z,984.13
2023-01-17T07:18:01.211Z,984.08
2023-01-17T07:19:01.219Z,984.07
2023-01-17T07:20:01.064Z,984.16
2023-01-17T07:21:01.124Z,984.1
2023-01-17T07:22:01.387Z,984.1
2023-01-17T07:23:01.173Z,984.06
2023-01-17T07:24:01.149Z,984.13
2023-01-17T07:25:01.080Z,984.11
2023-01-17T07:26:01.189Z,984.18
2023-01-17T07:27:01.145Z,984.19
2023-01-17T07:28:01.152Z,984.23
2023-01-17T07:29:01.049Z,984.18
2023-01-17T07:30:01.488Z,984.23
2023-01-17T07:31:01.259Z,984.15
2023-01-17T07:31:59.937Z,984.21
2023-01-17T07:32:59.630Z,984.25
2023-01-17T07:34:01.810Z,984.19
2023-01-17T07:35:01.296Z,984.32
2023-01-17T07:36:02.018Z,984.27
2023-01-17T07:37:01.373Z,984.26
2023-01-17T07:38:02.696Z,984.3
2023-01-17T07:39:04.311Z,984.3
2023-01-17T07:40:01.835Z,984.31
2023-01-17T07:41:01.153Z,984.32
2023-01-17T07:42:01.953Z,984.34
2023-01-17T07:43:01.946Z,984.36
2023-01-17T07:44:01.114Z,984.37
2023-01-17T07:45:01.066Z,984.42
2023-01-17T07:46:02.270Z,984.32
2023-01-17T07:47:01.169Z,984.41
2023-01-17T07:48:01.078Z,984.36
2023-01-17T07:49:01.098Z,984.47
2023-01-17T07:50:01.563Z,984.44
2023-01-17T07:51:01.096Z,984.42
2023-01-17T07:52:01.095Z,984.43
2023-01-17T07:53:01.116Z,984.47
2023-01-17T07:54:01.191Z,984.47
2023-01-17T07:55:01.158Z,984.43
2023-01-17T07:56:01.253Z,984.49
2023-01-17T07:57:01.520Z,984.56
2023-01-17T07:58:03.058Z,984.52
2023-01-17T07:59:01.181Z,984.52
2023-01-17T08:00:02.975Z,984.57
2023-01-17T08:01:02.257Z,984.57
2023-01-17T08:02:01.431Z,984.58
2023-01-17T08:03:01.190Z,984.63
2023-01-17T08:04:01.917Z,984.67
2023-01-17T08:05:05.622Z,984.64
2023-01-17T08:06:02.096Z,984.64
2023-01-17T08:07:02.333Z,984.68
2023-01-17T08:08:01.073Z,984.57
2023-01-17T08:09:01.145Z,984.62
2023-01-17T08:10:08.741Z,984.6
2023-01-17T08:11:01.925Z,984.65
2023-01-17T08:12:01.509Z,984.65
2023-01-17T08:13:01.265Z,984.64
2023-01-17T08:14:01.406Z,984.62
2023-01-17T08:15:12.996Z,984.63
2023-01-17T08:16:02.609Z,984.67
2023-01-17T08:17:01.282Z,984.61
2023-01-17T08:18:01.197Z,984.64
2023-01-17T08:19:01.174Z,984.62
2023-01-17T08:20:16.224Z,984.62
2023-01-17T08:21:01.107Z,984.61
2023-01-17T08:22:00.559Z,984.64
2023-01-17T08:23:00.149Z,984.63
2023-01-17T08:23:59.756Z,984.72
2023-01-17T08:25:01.503Z,984.7
2023-01-17T08:26:01.122Z,984.79
2023-01-17T08:27:01.122Z,984.79
2023-01-17T08:28:01.140Z,984.72
2023-01-17T08:29:01.230Z,984.76
2023-01-17T08:30:01.149Z,984.77
2023-01-17T08:31:02.062Z,984.8
2023-01-17T08:32:00.003Z,984.75
2023-01-17T08:32:59.607Z,984.79
2023-01-17T08:34:01.229Z,984.78
2023-01-17T08:35:01.941Z,984.81
2023-01-17T08:36:00.911Z,984.81
2023-01-17T08:37:00.571Z,984.85
2023-01-17T08:38:00.343Z,984.86
2023-01-17T08:39:00.053Z,984.79
2023-01-17T08:39:59.766Z,984.83
2023-01-17T08:41:01.938Z,984.83
2023-01-17T08:42:01.016Z,984.85
2023-01-17T08:43:01.119Z,984.93
2023-01-17T08:44:01.143Z,984.86
2023-01-17T08:45:01.852Z,984.86
2023-01-17T08:46:01.215Z,984.86
2023-01-17T08:47:01.053Z,984.89
2023-01-17T08:48:01.149Z,984.9
2023-01-17T08:49:01.172Z,984.87
2023-01-17T08:50:01.204Z,984.87
2023-01-17T08:51:01.866Z,984.93
2023-01-17T08:52:01.371Z,984.93
2023-01-17T08:53:02.719Z,984.88
2023-01-17T08:54:01.146Z,984.91
2023-01-17T08:55:01.124Z,984.92
2023-01-17T08:56:01.119Z,984.96
2023-01-17T08:57:01.354Z,984.96
2023-01-17T08:58:01.390Z,985.02
2023-01-17T08:59:01.627Z,985.05
2023-01-17T09:00:01.428Z,984.98
2023-01-17T09:01:01.340Z,985.01
2023-01-17T09:02:01.305Z,985.01
2023-01-17T09:03:01.149Z,985.04
2023-01-17T09:04:00.859Z,985.03
2023-01-17T09:05:00.651Z,985.02
2023-01-17T09:06:00.450Z,984.95
2023-01-17T09:07:00.126Z,985.09
2023-01-17T09:07:59.747Z,985.06
2023-01-17T09:09:01.377Z,985.14
2023-01-17T09:10:01.184Z,985.09
2023-01-17T09:11:01.497Z,985.11
2023-01-17T09:12:01.121Z,985.1
2023-01-17T09:13:01.251Z,985.17
2023-01-17T09:14:01.107Z,985.23
2023-01-17T09:15:01.157Z,985.15
2023-01-17T09:16:01.122Z,985.26
2023-01-17T09:17:01.114Z,985.27
2023-01-17T09:18:01.148Z,985.31
2023-01-17T09:19:01.131Z,985.28
2023-01-17T09:20:01.166Z,985.24
2023-01-17T09:21:00.841Z,985.37
2023-01-17T09:22:00.450Z,985.28
2023-01-17T09:23:00.122Z,985.26
2023-01-17T09:23:59.723Z,985.35
2023-01-17T09:25:01.928Z,985.35
2023-01-17T09:26:02.086Z,985.37
2023-01-17T09:27:01.762Z,985.43
2023-01-17T09:28:01.904Z,985.35
2023-01-17T09:29:01.393Z,985.39
2023-01-17T09:30:02.162Z,985.42
2023-01-17T09:31:01.301Z,985.53
2023-01-17T09:32:01.516Z,985.53
2023-01-17T09:33:02.172Z,985.47
2023-01-17T09:34:01.470Z,985.53
2023-01-17T09:35:01.351Z,985.5
2023-01-17T09:36:02.472Z,985.61
2023-01-17T09:37:01.143Z,985.59
2023-01-17T09:38:01.156Z,985.62
2023-01-17T09:39:01.466Z,985.66
2023-01-17T09:40:01.818Z,985.65
2023-01-17T09:41:01.298Z,985.61
2023-01-17T09:42:02.275Z,985.78
2023-01-17T09:43:03.010Z,985.66
2023-01-17T09:44:01.865Z,985.68
2023-01-17T09:45:01.127Z,985.74
2023-01-17T09:46:01.153Z,985.67
2023-01-17T09:47:01.146Z,985.61
2023-01-17T09:48:01.459Z,985.77
2023-01-17T09:49:01.537Z,985.59
2023-01-17T09:50:01.218Z,985.6
2023-01-17T09:51:03.192Z,985.52
2023-01-17T09:52:01.182Z,985.56
2023-01-17T09:53:01.593Z,985.67
2023-01-17T09:54:01.407Z,985.66
2023-01-17T09:55:02.631Z,985.64
2023-01-17T09:56:06.722Z,985.58
2023-01-17T09:57:01.073Z,985.63
2023-01-17T09:58:01.401Z,985.65
2023-01-17T09:59:01.229Z,985.67
2023-01-17T10:00:04.142Z,985.68
2023-01-17T10:01:09.952Z,985.63
2023-01-17T10:02:01.659Z,985.63
2023-01-17T10:03:01.596Z,985.65
2023-01-17T10:04:02.163Z,985.64
2023-01-17T10:05:01.316Z,985.69
2023-01-17T10:06:13.540Z,985.69
2023-01-17T10:07:01.146Z,985.68
2023-01-17T10:08:04.354Z,985.66
2023-01-17T10:09:01.156Z,985.69
2023-01-17T10:10:01.154Z,985.69
2023-01-17T10:11:15.353Z,985.74
2023-01-17T10:12:02.088Z,985.73
2023-01-17T10:13:02.246Z,985.82
2023-01-17T10:14:01.077Z,985.79
2023-01-17T10:15:01.143Z,985.74
2023-01-17T10:16:01.201Z,985.86
2023-01-17T10:17:01.213Z,985.8
2023-01-17T10:18:01.094Z,985.77
2023-01-17T10:19:01.113Z,985.83
2023-01-17T10:20:01.159Z,985.9
2023-01-17T10:21:01.133Z,985.87
2023-01-17T10:22:01.149Z,985.92
2023-01-17T10:23:01.137Z,985.91
2023-01-17T10:24:01.163Z,985.89
2023-01-17T10:25:01.145Z,985.93
2023-01-17T10:26:01.188Z,985.96
2023-01-17T10:27:01.391Z,985.93
2023-01-17T10:28:01.827Z,985.85
2023-01-17T10:29:02.576Z,985.9
2023-01-17T10:30:01.458Z,985.84
2023-01-17T10:31:01.390Z,985.92
2023-01-17T10:32:01.995Z,985.89
2023-01-17T10:33:01.092Z,985.9
2023-01-17T10:34:01.051Z,985.93
2023-01-17T10:35:01.106Z,985.91
2023-01-17T10:36:01.143Z,985.96
2023-01-17T10:37:01.461Z,985.96
2023-01-17T10:38:02.459Z,986.01
2023-01-17T10:39:02.087Z,985.97
2023-01-17T10:40:01.059Z,986.01
2023-01-17T10:41:01.192Z,986.01
2023-01-17T10:42:00.943Z,986.02
2023-01-17T10:43:01.171Z,986.05
2023-01-17T10:44:01.155Z,986.08
2023-01-17T10:45:01.999Z,986.07
2023-01-17T10:46:01.268Z,986.08
2023-01-17T10:47:02.280Z,986.1
2023-01-17T10:48:02.018Z,986.08
2023-01-17T10:49:02.003Z,986.15
2023-01-17T10:50:00.832Z,986.08
2023-01-17T10:51:00.615Z,986.1
2023-01-17T10:52:00.546Z,986.03
2023-01-17T10:53:00.388Z,986.1
2023-01-17T10:54:01.779Z,986.07
2023-01-17T10:55:02.454Z,986.11
2023-01-17T10:56:01.278Z,986.14
2023-01-17T10:57:01.154Z,986.2
2023-01-17T10:58:01.158Z,986.2
2023-01-17T10:59:01.151Z,986.13
2023-01-17T11:00:01.166Z,986.19
2023-01-17T11:01:01.711Z,986.15
2023-01-17T11:02:01.234Z,986.15
2023-01-17T11:03:01.186Z,986.13
2023-01-17T11:04:01.087Z,986.11
2023-01-17T11:05:01.084Z,986.14
2023-01-17T11:06:01.492Z,986.17
2023-01-17T11:07:01.091Z,986.16
2023-01-17T11:08:01.121Z,986.22
2023-01-17T11:09:01.076Z,986.18
2023-01-17T11:10:01.137Z,986.11
2023-01-17T11:11:01.143Z,986.12
2023-01-17T11:12:01.137Z,986.11
2023-01-17T11:13:01.158Z,986.1
2023-01-17T11:14:01.239Z,986.17
2023-01-17T11:15:01.460Z,986.22
2023-01-17T11:16:01.225Z,986.2
2023-01-17T11:17:01.060Z,986.23
2023-01-17T11:18:01.082Z,986.19
2023-01-17T11:19:01.075Z,986.22
2023-01-17T11:20:01.084Z,986.18
2023-01-17T11:21:01.169Z,986.2
2023-01-17T11:22:01.648Z,986.22
2023-01-17T11:23:01.871Z,986.2
2023-01-17T11:24:02.147Z,986.26
2023-01-17T11:25:01.119Z,986.19
2023-01-17T11:26:01.129Z,986.25
2023-01-17T11:27:01.129Z,986.3
2023-01-17T11:28:01.149Z,986.27
2023-01-17T11:29:01.136Z,986.26
2023-01-17T11:30:01.136Z,986.3
2023-01-17T11:31:01.229Z,986.3
2023-01-17T11:32:00.392Z,986.33
2023-01-17T11:32:59.966Z,986.36
2023-01-17T11:33:59.616Z,986.41
2023-01-17T11:35:01.460Z,986.38
2023-01-17T11:36:01.179Z,986.28
2023-01-17T11:37:03.153Z,986.38
2023-01-17T11:38:01.056Z,986.38
2023-01-17T11:39:01.100Z,986.31
2023-01-17T11:40:01.116Z,986.32
2023-01-17T11:41:00.813Z,986.36
2023-01-17T11:42:05.070Z,986.35
2023-01-17T11:43:01.595Z,986.35
2023-01-17T11:44:01.501Z,986.35
2023-01-17T11:45:01.157Z,986.39
2023-01-17T11:46:01.257Z,986.28
2023-01-17T11:47:08.068Z,986.4
2023-01-17T11:48:01.154Z,986.43
2023-01-17T11:49:01.174Z,986.41
2023-01-17T11:50:01.075Z,986.46
2023-01-17T11:51:01.067Z,986.5
2023-01-17T11:52:10.445Z,986.48
2023-01-17T11:53:01.117Z,986.45
2023-01-17T11:54:01.481Z,986.49
2023-01-17T11:55:01.160Z,986.51
2023-01-17T11:56:01.169Z,986.54
2023-01-17T11:57:13.377Z,986.6
2023-01-17T11:58:01.134Z,986.57
2023-01-17T11:59:01.849Z,986.61
2023-01-17T12:00:01.835Z,986.64
2023-01-17T12:01:01.759Z,986.67
2023-01-17T12:02:16.230Z,986.68
2023-01-17T12:03:02.676Z,986.77
2023-01-17T12:04:01.212Z,986.69
2023-01-17T12:05:02.398Z,986.65
2023-01-17T12:06:01.071Z,986.73
2023-01-17T12:07:01.514Z,986.66
2023-01-17T12:08:01.176Z,986.69
2023-01-17T12:09:01.111Z,986.71
2023-01-17T12:10:01.112Z,986.69
2023-01-17T12:11:01.091Z,986.71
2023-01-17T12:12:03.223Z,986.8
2023-01-17T12:13:01.121Z,986.72
2023-01-17T12:14:01.122Z,986.75
2023-01-17T12:15:01.129Z,986.71
2023-01-17T12:16:01.174Z,986.79
2023-01-17T12:17:01.059Z,986.71
2023-01-17T12:18:01.128Z,986.68
2023-01-17T12:19:01.311Z,986.76
2023-01-17T12:20:01.674Z,986.68
2023-01-17T12:21:01.207Z,986.79
2023-01-17T12:22:01.289Z,986.76
2023-01-17T12:23:01.076Z,986.82
2023-01-17T12:24:01.807Z,986.81
2023-01-17T12:25:01.158Z,986.82
2023-01-17T12:26:01.332Z,986.77
2023-01-17T12:27:01.104Z,986.81
2023-01-17T12:28:01.339Z,986.79
2023-01-17T12:29:01.518Z,986.84
2023-01-17T12:30:02.162Z,986.78